ADDS METAR Data INFO
IDs: Format: Raw Decoded Include TAF

Data at: 1010 UTC 12 Dec 2017

KSNA 120953Z AUTO 00000KT 10SM CLR 11/M01 A3018 RMK AO2 SLP219 T01061006
KSNA 120853Z AUTO 00000KT 10SM CLR 12/M01 A3018 RMK AO2 SLP218 T01171011 55001
KSNA 120753Z AUTO 36003KT 10SM CLR 13/M01 A3017 RMK AO2 SLP216 T01281006 402670117
KSNA 120653Z 03004KT 10SM FEW200 13/00 A3018 RMK AO2 SLP219 T01330000
KSNA 120553Z 20003KT 10SM FEW200 14/00 A3018 RMK AO2 SLP220 T01440000 10256 20139 51005
KSNA 120453Z 00000KT 10SM FEW200 16/00 A3018 RMK AO2 SLP219 T01610000
KSNA 120353Z 00000KT 10SM FEW200 17/02 A3017 RMK AO2 SLP216 T01720017
KSNA 120253Z 00000KT 10SM FEW200 19/01 A3017 RMK AO2 SLP215 T01940011 52007
KSNA 120153Z 00000KT 10SM FEW220 22/M01 A3016 RMK AO2 SLP213 T02221011
KSNA 120053Z 17004KT 10SM SCT220 22/00 A3015 RMK AO2 SLP210 T02220000
KSNA 112353Z 00000KT 10SM SCT250 26/M06 A3015 RMK AO2 SLP207 T02561056 10267 20222 55003
KSNA 112253Z 23004KT 10SM BKN250 26/M09 A3014 RMK AO2 SLP205 T02561094
KSNA 112153Z 22006KT 10SM BKN250 26/M03 A3015 RMK AO2 SLP208 T02561028
KSNA 112053Z 23005KT 10SM BKN250 24/04 A3015 RMK AO2 SLP210 T02440039 58018
KSNA 111953Z 21007KT 10SM FEW120 SCT250 26/01 A3017 RMK AO2 SLP216 FU FEW120 T02610011
KSNA 111853Z 23004KT 10SM FEW120 BKN250 25/M02 A3020 RMK AO2 SLP224 FU FEW120 T02501017
KSNA 111753Z 00000KT 10SM FEW180 BKN250 22/M02 A3021 RMK AO2 SLP228 T02221017 10222 20117 51017
KSNA 111653Z 00000KT 10SM FEW180 BKN250 18/M01 A3020 RMK AO2 SLP224 T01781011
KSNA 111553Z 07003KT 10SM SCT180 BKN250 14/M01 A3018 RMK AO2 SLP219 T01441011
KSNA 111453Z 00000KT 10SM FEW140 BKN180 BKN250 13/M01 A3016 RMK AO2 SLP212 T01281011 53008
KSNA 111353Z 00000KT 10SM SCT250 13/M03 A3014 RMK AO2 SLP205 T01281028
KSNA 111253Z AUTO 05003KT 10SM CLR 13/M02 A3013 RMK AO2 SLP200 T01281017
KSNA 111153Z AUTO 00000KT 10SM CLR 13/M01 A3014 RMK AO2 SLP203 T01281011 10189 20122 58005
KSNA 111053Z AUTO 03003KT 10SM CLR 13/M01 A3015 RMK AO2 SLP207 T01331011
KSNA 110953Z AUTO 00000KT 10SM CLR 14/M03 A3015 RMK AO2 SLP209 T01441028
KSNA 110853Z AUTO 00000KT 10SM CLR 16/M03 A3015 RMK AO2 SLP209 T01561028 51001
KSNA 110753Z AUTO 00000KT 10SM CLR 17/M05 A3015 RMK AO2 SLP208 T01721050 403110122
KSNA 110653Z 02003KT 10SM SCT180 OVC250 18/M06 A3015 RMK AO2 SLP209 FU SCT180 LAST T01831056
KSNA 110553Z 00000KT 10SM BKN180 OVC250 18/M05 A3015 RMK AO2 SLP208 FU BKN180 T01831050 10283 20183 51012
KSNA 110453Z 01003KT 10SM BKN180 OVC250 20/M06 A3014 RMK AO2 SLP205 FU BKN180 T02001061
KSNA 110353Z 00000KT 10SM BKN180 OVC250 21/M07 A3013 RMK AO2 SLP202 FU BKN180 T02111067
KSNA 110253Z 13004KT 10SM BKN180 OVC250 23/M09 A3011 RMK AO2 SLP197 FU BKN180 T02331089 53016
KSNA 110153Z 09008KT 10SM BKN180 OVC250 26/M12 A3010 RMK AO2 SLP191 FU BKN180 T02561122
KSNA 110053Z VRB06KT 10SM BKN180 OVC250 27/M12 A3008 RMK AO2 SLP184 FU BKN180 T02721117
KSNA 102353Z 07004G15KT 10SM BKN180 OVC220 28/M12 A3007 RMK AO2 SLP181 FU BKN180 T02831117 10311 20222 55003
KSNA 102253Z 04007KT 10SM SCT160 OVC220 29/M11 A3006 RMK AO2 SLP176 FU SCT160 T02891106